Bavaria Weather Data




      Date/Time    Temp      RH    Wind    Wind    Wind Snow 24hr Snow Depth
                  deg F       %     MPH     Max     Dir    inches     inches
                                                                            
----------------------------------------------------------------------------
 04/18/14 00:00    35.9      55      17      33     262       1.9       98.3
 04/18/14 01:00    35.9      54      17      29     247       1.9       98.3
 04/18/14 02:00    36.1      56      20      31     230       1.9       98.4
 04/18/14 03:00    36.3      55      20      40     242       1.9       98.3
 04/18/14 04:00    36.0      68      19      36     221       1.9       98.3
 04/18/14 05:00    34.3      85      21      38     216       1.9       98.2
 04/18/14 06:00    32.6      87      18      30     233       1.9       97.9
 04/18/14 07:00    32.2      88      13      23     262       1.9      144.5
 04/18/14 08:00    30.7      92      12      20     272       2.1      144.5
 04/18/14 09:00    27.8      91      16      26     280       2.6      100.0
 04/18/14 10:00    25.7      85      24      37     273      19.8      144.5
 04/18/14 11:00    26.5      83      19      31     246       2.3      100.4
 04/18/14 12:00    27.0      73      17      30     262       2.4      100.3
 04/18/14 13:00    30.4      68      14      27     214       2.5      100.3
 04/18/14 14:00    30.4      67      14      26     259       2.0       99.9
 04/18/14 15:00    31.1      61      18      38     267       2.0       99.8
 04/18/14 16:00    33.2      29      18      36     230       0.4      144.5
 04/18/14 17:00    30.4      65      20      31     274       0.4       99.6
 04/18/14 18:00    26.2      70      21      33     296       0.3       99.5
 04/18/14 19:00    23.9      59      20      31     299       0.4       99.6
 04/18/14 20:00    22.4      45      21      33     219       0.4       99.8
 04/18/14 21:00    20.8      45      18      30     296       0.5       99.8
 04/18/14 22:00    20.8      35      17      31     245       0.4       99.8
 04/18/14 23:00    21.6      35      13      29     247       0.4       99.7
 04/19/14 00:00    21.1      36      12      20     263       0.4       99.7
 04/19/14 01:00    20.9      39      14      23     263       0.4       99.7
 04/19/14 02:00    19.8      39      14      23     278       0.4       99.7
 04/19/14 03:00    20.0      35      16      23     279       0.4       99.7
 04/19/14 04:00    21.0      33      18      29     283       0.4       99.7
 04/19/14 05:00    21.8      35      15      23     261       0.4       99.7
 04/19/14 06:00    22.6      31      14      21     271       0.4       99.7
 04/19/14 07:00    22.6      31      14      24     238       0.4       99.6
 04/19/14 08:00    24.1      22      16      25     242       0.4       99.6